メインページ
METAR-TAF:

METAR-TAF

空港 :

Cut Bank, モンタナ州, アメリカ合衆国

緯度: 48-36-30N, 経度: 112-22-34W, 海抜: 1175m

現時点の気象観測

当レポートは17分前の09:56(UTC)に作成
北/北西の風 3kt
気温 12°C
湿度 67%
気圧 1017 hPa
視程: 16.1km
晴天

METAR: KCTB 050956Z AUTO 34003KT 10SM CLR 12/06 A3004 RMK AO2 SLP144 T01220056

時間: 04:13 (10:13 UTC)

予報

当レポートは4時間32分前の05:41(UTC)に作成
予報は05日の 06時(UTC)から 06日の 06時(UTC)まで有効
変向風 6kt
視程: 10km
晴天
05日の 1700時(UTC)から
南東の風 10kt
視程: 10km
高度15000ftの雲はほとんどない
06日の 0000時(UTC)から
の風 10kt
視程: 10km
高度7000ftの雲はほとんどない
高度12000ftの雲は散在している

TAF: KCTB 050541Z 0506/0606 VRB06KT P6SM SKC FM051700 14010KT P6SM FEW150 FM060000 18010KT P6SM FEW070 SCT120

4,000以上の空港の気象観測と天気予報(METAR報とTAF報)

利用可能な観測所は地図上に黄色い丸と赤い丸で示す。

丸の上にカーソルを重ねると観測所名を参照できる。

次にクリックすると気象観測と天気予報を参照できる。

マップの切り替え:黒色「×」印の緑ボタンをクリックして拡大、「-」印の緑ボタンをクリックして縮小、緑色の三角印をクリックして隣りの地図に切り替え


METAR-TAF: